Provo, Kentucky
Current Conditions -  °F | °C
As of 4:53 PM on Wednesday 26 Nov 2014 (Local Time) from KBWG Reporting Station
Overcast Overcast  
Wind Chill: 42°   Ceiling: 9500
Heat Index: 45°   Visibility: 10mi
Dew Point: 23°   Wind: 6mph
Humidity: 42%   Direction: 130°SE
Pressure: 29.99"   Gusts: NA
Location:  37.23°N, 86.83°W
Report Text: KBWG 262253Z AUTO 13005KT 10SM OVC095 07/M05 A2999 RMK AO2 SLP160 T00721050
Loading
Personal Weather Stations






























Interactive Weather Map New forecast layout! Learn more

10-Day Weather Forecast

Advertisements
Track Severe Weather on mobile